Time;durP1;ratioP1;P1;durP2;ratioP2;P2;SDS_P1;SDS_P2;PMS_P1;PMS_P2;Temp;Humidity;BMP_temperature;BMP_pressure;BME280_temperature;BME280_humidity;BME280_pressure;Samples;Min_cycle;Max_cycle;Signal;HPM_P1;HPM_P2
2022/09/23 00:01:38;;;;;;;1.58;1.02;;;;;;;20.12;32.91;100903.50;4749787;30;20146;-86
2022/09/23 00:04:04;;;;;;;1.70;0.90;;;;;;;20.20;32.74;100903.13;4747441;30;20032;-86
2022/09/23 00:06:29;;;;;;;1.02;0.93;;;;;;;20.12;32.66;100898.06;4718618;30;20035;-86
2022/09/23 00:08:55;;;;;;;1.00;0.90;;;;;;;20.17;32.75;100904.41;4735760;30;20165;-86
2022/09/23 00:11:23;;;;;;;0.80;0.80;;;;;;;20.15;32.76;100897.59;4749991;30;20463;-86
2022/09/23 00:13:50;;;;;;;1.00;0.70;;;;;;;19.96;32.78;100878.75;4730213;30;20036;-86
2022/09/23 00:16:18;;;;;;;1.30;1.10;;;;;;;20.00;32.59;100876.38;4747522;30;20130;-86
2022/09/23 00:18:44;;;;;;;1.25;1.02;;;;;;;19.91;32.80;100867.78;4734184;30;20050;-86
2022/09/23 00:21:11;;;;;;;1.35;0.80;;;;;;;20.06;32.69;100884.41;4744948;30;20398;-86
2022/09/23 00:23:37;;;;;;;1.48;0.93;;;;;;;20.11;32.72;100890.97;4738542;30;20498;-86
2022/09/23 00:26:04;;;;;;;1.35;0.98;;;;;;;19.99;32.66;100875.56;4743998;30;20048;-85
2022/09/23 00:28:30;;;;;;;0.70;0.70;;;;;;;20.02;32.68;100871.53;4721134;30;20035;-85
2022/09/23 00:30:55;;;;;;;0.98;0.90;;;;;;;20.02;32.76;100885.09;4755077;30;20505;-85
2022/09/23 00:33:21;;;;;;;1.25;0.90;;;;;;;20.01;32.68;100881.56;4759004;30;20482;-86
2022/09/23 00:35:47;;;;;;;0.77;0.70;;;;;;;19.99;32.85;100881.00;4736790;30;20039;-86
2022/09/23 00:38:13;;;;;;;1.17;0.85;;;;;;;20.01;32.58;100884.28;4743144;30;20038;-85
2022/09/23 00:40:43;;;;;;;0.98;0.80;;;;;;;20.03;32.56;100890.28;4739191;30;20031;-86
2022/09/23 00:43:11;;;;;;;1.27;0.82;;;;;;;19.92;32.72;100880.28;4726794;30;20031;-86
2022/09/23 00:45:40;;;;;;;0.85;0.80;;;;;;;20.00;32.72;100882.63;4742930;30;20028;-85
2022/09/23 00:48:07;;;;;;;0.85;0.73;;;;;;;19.99;32.71;100881.00;4741809;30;20023;-86
2022/09/23 00:50:37;;;;;;;1.38;0.98;;;;;;;19.88;32.57;100862.84;4740894;30;20036;-86
2022/09/23 00:53:05;;;;;;;0.68;0.68;;;;;;;19.91;32.62;100884.06;4753602;30;20478;-86
2022/09/23 00:55:33;;;;;;;0.90;0.90;;;;;;;19.92;32.72;100880.28;4744395;30;20069;-85
2022/09/23 00:57:59;;;;;;;1.08;0.80;;;;;;;19.87;32.56;100883.72;4727333;30;20032;-86
2022/09/23 01:00:25;;;;;;;1.52;0.80;;;;;;;19.77;32.71;100855.56;4759324;30;20035;-85
2022/09/23 01:02:51;;;;;;;1.65;0.93;;;;;;;19.91;32.65;100881.34;4749004;30;20127;-85
2022/09/23 01:05:17;;;;;;;1.58;0.80;;;;;;;19.88;32.68;100877.22;4736084;30;20114;-85
2022/09/23 01:07:43;;;;;;;0.88;0.80;;;;;;;19.77;32.60;100856.38;4745163;30;20388;-85
2022/09/23 01:10:09;;;;;;;1.10;0.75;;;;;;;19.87;32.74;100872.06;4764369;30;20028;-86
2022/09/23 01:12:34;;;;;;;1.80;0.90;;;;;;;19.90;32.62;100874.25;4746193;30;20473;-85
2022/09/23 01:15:21;;;;;;;2.97;1.10;;;;;;;19.81;32.62;100862.13;4748937;30;20039;-86
2022/09/23 01:17:50;;;;;;;0.80;0.80;;;;;;;19.85;32.68;100872.28;4738973;30;20032;-85
2022/09/23 01:20:27;;;;;;;0.88;0.70;;;;;;;19.87;32.60;100869.34;4763148;30;20238;-86
2022/09/23 01:23:17;;;;;;;0.80;0.60;;;;;;;19.80;32.57;100865.91;4755196;30;20689;-85
2022/09/23 01:25:54;;;;;;;1.50;0.80;;;;;;;19.83;32.72;100873.56;4761915;30;20422;-85
2022/09/23 01:28:32;;;;;;;0.85;0.80;;;;;;;19.82;32.60;100863.81;4754277;30;20042;-86
2022/09/23 01:31:03;;;;;;;0.70;0.70;;;;;;;19.83;32.64;100873.56;4735507;30;20034;-86
2022/09/23 01:33:48;;;;;;;1.00;0.88;;;;;;;19.76;32.67;100862.84;4740488;30;20036;-86
2022/09/23 01:36:23;;;;;;;0.70;0.65;;;;;;;19.80;32.42;100871.31;4757146;30;20122;-85
2022/09/23 01:38:57;;;;;;;0.70;0.70;;;;;;;19.77;32.47;100869.09;4759244;30;20167;-85
2022/09/23 01:41:35;;;;;;;1.55;0.80;;;;;;;19.78;32.74;100874.31;4752846;30;20028;-86
2022/09/23 01:44:19;;;;;;;0.75;0.70;;;;;;;19.75;32.59;100868.50;4763333;30;20140;-85
2022/09/23 01:46:49;;;;;;;1.13;0.90;;;;;;;19.70;32.77;100871.91;4757008;30;20036;-86
2022/09/23 01:49:21;;;;;;;0.52;0.52;;;;;;;19.74;32.47;100877.69;4736760;30;20024;-86
2022/09/23 01:52:17;;;;;;;0.85;0.70;;;;;;;19.74;32.74;100880.38;4736117;30;20043;-86
2022/09/23 01:54:49;;;;;;;0.68;0.68;;;;;;;19.70;32.67;100877.34;4758237;30;20089;-86
2022/09/23 01:57:22;;;;;;;0.70;0.70;;;;;;;19.76;32.83;100862.03;4749281;30;20031;-86
2022/09/23 01:59:59;;;;;;;0.80;0.80;;;;;;;19.72;32.72;100848.09;4729723;30;20036;-85
2022/09/23 02:02:48;;;;;;;0.77;0.70;;;;;;;19.81;32.58;100859.44;4716987;30;20135;-86
2022/09/23 02:05:18;;;;;;;0.60;0.60;;;;;;;19.84;32.62;100862.47;4744864;30;20119;-86
2022/09/23 02:07:49;;;;;;;0.70;0.70;;;;;;;19.77;32.80;100850.13;4745721;30;20032;-86
2022/09/23 02:10:27;;;;;;;0.75;0.68;;;;;;;19.75;32.65;100858.50;4716248;30;20499;-86
2022/09/23 02:12:56;;;;;;;1.77;0.75;;;;;;;19.76;32.75;100862.03;4731730;30;20034;-86
2022/09/23 02:15:24;;;;;;;0.75;0.63;;;;;;;19.75;32.68;100863.06;4716875;30;20036;-86
2022/09/23 02:17:54;;;;;;;4.63;0.65;;;;;;;19.73;32.64;100854.31;4732600;30;20356;-86
2022/09/23 02:20:29;;;;;;;1.10;0.80;;;;;;;19.81;32.55;100867.56;4734766;30;20024;-86
2022/09/23 02:23:22;;;;;;;0.70;0.70;;;;;;;19.78;32.71;100854.47;4733635;30;20043;-85
2022/09/23 02:25:55;;;;;;;1.08;0.80;;;;;;;19.85;32.71;100874.16;4747427;30;20055;-86
2022/09/23 02:28:38;;;;;;;0.75;0.70;;;;;;;19.85;32.56;100863.31;4733122;30;20485;-86
2022/09/23 02:31:10;;;;;;;1.92;0.70;;;;;;;19.81;32.63;100862.94;4735810;30;20490;-86
2022/09/23 02:33:40;;;;;;;2.15;0.80;;;;;;;19.83;32.60;100860.00;4732480;30;20036;-86
2022/09/23 02:36:14;;;;;;;0.60;0.60;;;;;;;19.83;32.67;100869.00;4732909;30;20405;-86
2022/09/23 02:38:45;;;;;;;0.57;0.57;;;;;;;19.84;32.61;100861.66;4734794;30;20086;-86
2022/09/23 02:41:25;;;;;;;0.95;0.65;;;;;;;19.80;32.49;100861.31;4733122;30;20074;-86
2022/09/23 02:43:50;;;;;;;0.93;0.70;;;;;;;19.85;32.47;100858.72;4734453;30;20036;-86
2022/09/23 02:46:16;;;;;;;0.70;0.70;;;;;;;19.82;32.73;100858.38;4747632;30;20036;-86
2022/09/23 02:49:00;;;;;;;0.50;0.50;;;;;;;19.84;32.59;100850.81;4748284;30;20040;-86
2022/09/23 02:51:27;;;;;;;1.98;0.68;;;;;;;19.77;32.68;100850.13;4734124;30;20062;-86
2022/09/23 02:53:56;;;;;;;1.25;0.77;;;;;;;19.87;32.46;100861.19;4732897;30;20040;-86
2022/09/23 02:56:22;;;;;;;0.70;0.70;;;;;;;19.83;32.50;100857.28;4733578;30;20410;-86
2022/09/23 02:58:48;;;;;;;0.60;0.60;;;;;;;19.86;32.36;100854.13;4747351;30;20028;-86
2022/09/23 03:01:43;;;;;;;1.13;0.70;;;;;;;19.80;32.41;100844.19;4750554;30;20498;-86
2022/09/23 03:04:39;;;;;;;0.65;0.60;;;;;;;19.88;32.38;100858.22;4747133;30;20036;-86
2022/09/23 03:07:16;;;;;;;0.70;0.70;;;;;;;19.89;32.35;100859.06;4748207;30;20032;-86
2022/09/23 03:09:54;;;;;;;0.70;0.60;;;;;;;19.85;32.33;100849.75;4749837;30;20511;-86
2022/09/23 03:12:29;;;;;;;1.33;0.60;;;;;;;19.76;32.27;100837.63;4750034;30;20055;-86
2022/09/23 03:15:04;;;;;;;1.15;0.60;;;;;;;19.87;32.46;100853.06;4744019;30;20031;-86
2022/09/23 03:17:55;;;;;;;0.85;0.70;;;;;;;19.93;32.24;100859.41;4738321;30;20039;-85
2022/09/23 03:20:30;;;;;;;0.68;0.50;;;;;;;19.77;32.36;100839.28;4736284;30;20439;-86
2022/09/23 03:22:59;;;;;;;2.70;0.68;;;;;;;19.89;32.44;100849.03;4717475;30;20486;-85
2022/09/23 03:25:26;;;;;;;0.90;0.90;;;;;;;19.91;32.26;100858.84;4733274;30;20042;-85
2022/09/23 03:27:56;;;;;;;1.00;0.75;;;;;;;19.92;32.24;100855.03;4715913;30;20047;-86
2022/09/23 03:30:21;;;;;;;0.60;0.60;;;;;;;19.92;32.19;100853.19;4746906;30;20123;-86
2022/09/23 03:32:47;;;;;;;2.33;0.90;;;;;;;19.95;32.09;100863.53;4750657;30;20278;-86
2022/09/23 03:35:12;;;;;;;1.20;0.80;;;;;;;19.93;32.23;100854.81;4738459;30;20627;-86
2022/09/23 03:37:41;;;;;;;0.70;0.70;;;;;;;19.91;32.13;100850.69;4723505;30;20123;-87
2022/09/23 03:40:11;;;;;;;0.60;0.60;;;;;;;19.93;32.10;100859.41;4732624;30;20036;-86
2022/09/23 03:42:37;;;;;;;0.82;0.82;;;;;;;19.94;32.10;100861.03;4722242;30;20032;-86
2022/09/23 03:45:06;;;;;;;0.70;0.60;;;;;;;19.97;32.13;100861.41;4741091;30;20127;-86
2022/09/23 03:47:31;;;;;;;0.60;0.60;;;;;;;19.85;31.98;100845.16;4727656;30;20036;-87
2022/09/23 03:49:59;;;;;;;0.70;0.70;;;;;;;19.87;31.82;100850.34;4746922;30;20446;-87
2022/09/23 03:52:27;;;;;;;1.23;0.73;;;;;;;19.93;31.97;100859.41;4740781;30;20024;-87
2022/09/23 03:54:56;;;;;;;0.80;0.80;;;;;;;19.92;31.96;100855.88;4734731;30;20032;-86
2022/09/23 03:57:22;;;;;;;0.60;0.60;;;;;;;19.83;31.77;100847.28;4733358;30;20039;-87
2022/09/23 03:59:49;;;;;;;0.75;0.70;;;;;;;19.81;31.96;100835.84;4745829;30;20032;-86
2022/09/23 04:02:15;;;;;;;1.48;0.70;;;;;;;19.85;31.78;100838.88;4745538;30;20110;-87
2022/09/23 04:04:41;;;;;;;0.70;0.70;;;;;;;19.89;31.87;100840.09;4726613;30;20036;-86
2022/09/23 04:07:07;;;;;;;1.05;0.80;;;;;;;19.66;31.73;100817.31;4731648;30;20748;-87
2022/09/23 04:09:38;;;;;;;1.75;0.93;;;;;;;19.76;31.78;100815.91;4731055;30;20081;-87
2022/09/23 04:12:04;;;;;;;0.95;0.75;;;;;;;19.76;31.67;100813.22;4731325;30;20043;-86
2022/09/23 04:14:35;;;;;;;0.77;0.70;;;;;;;20.03;31.54;100863.16;4731260;30;20547;-87
2022/09/23 04:17:00;;;;;;;0.77;0.70;;;;;;;19.80;31.74;100817.09;4718335;30;20496;-87
2022/09/23 04:19:28;;;;;;;0.70;0.70;;;;;;;19.59;31.60;100773.25;4746643;30;20086;-86
2022/09/23 04:21:54;;;;;;;0.50;0.50;;;;;;;19.78;31.50;100811.09;4717024;30;20472;-87
2022/09/23 04:24:22;;;;;;;1.98;0.63;;;;;;;19.76;31.59;100803.19;4716145;30;20041;-86
2022/09/23 04:26:54;;;;;;;0.73;0.70;;;;;;;20.07;31.32;100853.50;4732951;30;20591;-86
2022/09/23 04:29:20;;;;;;;0.95;0.80;;;;;;;20.00;31.35;100850.06;4731560;30;20039;-87
2022/09/23 04:31:45;;;;;;;0.82;0.68;;;;;;;19.89;31.53;100826.53;4745636;30;20403;-86
2022/09/23 04:34:11;;;;;;;1.27;0.93;;;;;;;19.82;31.44;100829.34;4746638;30;20400;-86
2022/09/23 04:36:37;;;;;;;0.70;0.70;;;;;;;19.93;31.43;100826.88;4731441;30;20024;-87
2022/09/23 04:39:03;;;;;;;0.98;0.80;;;;;;;19.81;31.27;100805.19;4746447;30;20036;-87
2022/09/23 04:41:29;;;;;;;0.80;0.80;;;;;;;19.81;31.36;100822.28;4745595;30;20127;-86
2022/09/23 04:43:56;;;;;;;0.82;0.77;;;;;;;20.13;31.15;100875.28;4747726;30;20118;-86
2022/09/23 04:46:22;;;;;;;1.35;0.60;;;;;;;19.87;31.18;100820.50;4745721;30;20028;-86
2022/09/23 04:48:47;;;;;;;0.88;0.63;;;;;;;19.79;31.15;100799.19;4746295;30;20074;-87
2022/09/23 04:51:15;;;;;;;0.80;0.60;;;;;;;19.66;31.20;100786.66;4747746;30;20128;-86
2022/09/23 04:53:41;;;;;;;0.85;0.70;;;;;;;19.97;31.08;100834.28;4746953;30;20035;-87
2022/09/23 04:56:12;;;;;;;0.63;0.63;;;;;;;19.61;31.08;100775.69;4746153;30;20028;-87
2022/09/23 04:58:38;;;;;;;1.20;0.85;;;;;;;20.04;31.11;100845.84;4747467;30;20032;-86
2022/09/23 05:01:09;;;;;;;0.70;0.70;;;;;;;19.89;31.09;100810.25;4751911;30;20101;-87
2022/09/23 05:03:34;;;;;;;1.85;0.73;;;;;;;19.98;30.99;100830.50;4761667;30;20055;-86
2022/09/23 05:06:00;;;;;;;0.88;0.82;;;;;;;20.08;31.03;100840.75;4754455;30;20035;-87
2022/09/23 05:08:27;;;;;;;1.75;0.73;;;;;;;20.04;31.10;100845.84;4765473;30;20063;-87
2022/09/23 05:10:59;;;;;;;0.70;0.63;;;;;;;19.88;30.97;100808.59;4754597;30;20088;-87
2022/09/23 05:13:25;;;;;;;0.95;0.70;;;;;;;20.07;31.04;100839.94;4765164;30;20185;-86
2022/09/23 05:16:02;;;;;;;1.27;0.77;;;;;;;19.95;31.03;100820.13;4756162;30;20036;-86
2022/09/23 05:18:32;;;;;;;0.85;0.80;;;;;;;20.06;31.08;100849.13;4744284;30;20104;-86
2022/09/23 05:20:58;;;;;;;0.85;0.70;;;;;;;20.04;30.99;100845.84;4734343;30;20039;-86
2022/09/23 05:23:24;;;;;;;0.90;0.70;;;;;;;20.05;30.92;100847.47;4754840;30;20252;-86
2022/09/23 05:25:58;;;;;;;1.95;0.70;;;;;;;20.02;30.93;100844.41;4729247;30;20647;-86
2022/09/23 05:28:25;;;;;;;1.58;0.80;;;;;;;20.02;31.05;100837.13;4723056;30;20444;-86
2022/09/23 05:30:50;;;;;;;0.82;0.73;;;;;;;20.05;30.92;100847.47;4727505;30;20131;-86
2022/09/23 05:33:16;;;;;;;1.05;0.60;;;;;;;20.03;31.07;100844.16;4738838;30;20122;-86
2022/09/23 05:35:46;;;;;;;0.65;0.65;;;;;;;20.02;31.02;100853.38;4752402;30;20521;-86
2022/09/23 05:38:11;;;;;;;1.55;0.75;;;;;;;20.06;31.05;100859.97;4740488;30;20036;-86
2022/09/23 05:40:37;;;;;;;0.90;0.77;;;;;;;20.05;30.92;100858.31;4739863;30;20736;-86
2022/09/23 05:43:02;;;;;;;0.70;0.70;;;;;;;20.01;31.12;100857.16;4720333;30;20061;-86
2022/09/23 05:45:28;;;;;;;0.77;0.73;;;;;;;20.00;31.09;100851.97;4764536;30;20059;-86
2022/09/23 05:47:54;;;;;;;0.77;0.70;;;;;;;20.02;31.06;100864.25;4739881;30;20482;-86
2022/09/23 05:50:19;;;;;;;0.70;0.70;;;;;;;19.96;31.12;100854.34;4728111;30;20035;-86
2022/09/23 05:52:45;;;;;;;1.30;0.90;;;;;;;19.89;30.84;100840.09;4743165;30;20032;-86
2022/09/23 05:55:11;;;;;;;1.15;0.80;;;;;;;19.98;31.11;100857.63;4747965;30;20106;-86
2022/09/23 05:57:36;;;;;;;0.80;0.60;;;;;;;19.79;31.12;100821.69;4768744;30;20042;-86
2022/09/23 06:00:03;;;;;;;0.95;0.80;;;;;;;19.95;31.23;100849.97;4756239;30;20111;-86
2022/09/23 06:02:28;;;;;;;1.00;0.70;;;;;;;19.89;31.15;100840.91;4749258;30;20056;-86
2022/09/23 06:04:54;;;;;;;0.60;0.60;;;;;;;19.70;31.04;100807.66;4724848;30;20036;-86
2022/09/23 06:07:25;;;;;;;0.80;0.80;;;;;;;20.02;31.02;100864.25;4734584;30;20050;-86
2022/09/23 06:09:57;;;;;;;1.42;0.65;;;;;;;19.91;31.07;100845.28;4738536;30;20039;-85
2022/09/23 06:12:23;;;;;;;0.70;0.70;;;;;;;19.92;31.17;100845.03;4730993;30;20407;-86
2022/09/23 06:14:49;;;;;;;1.05;0.90;;;;;;;19.83;31.19;100832.88;4735249;30;20113;-86
2022/09/23 06:17:15;;;;;;;0.80;0.80;;;;;;;19.90;31.32;100839.00;4747758;30;20118;-86
2022/09/23 06:19:40;;;;;;;1.05;0.65;;;;;;;19.89;31.37;100857.16;4729875;30;20391;-86
2022/09/23 06:22:06;;;;;;;0.70;0.70;;;;;;;19.95;31.31;100858.09;4740415;30;20153;-86
2022/09/23 06:24:32;;;;;;;0.70;0.70;;;;;;;19.72;31.23;100812.03;4727292;30;20114;-85
2022/09/23 06:26:57;;;;;;;1.40;0.70;;;;;;;19.83;31.33;100833.72;4764713;30;20028;-86
2022/09/23 06:29:23;;;;;;;0.70;0.60;;;;;;;19.88;31.24;100843.84;4743443;30;20134;-86
2022/09/23 06:31:51;;;;;;;0.80;0.80;;;;;;;19.67;31.35;100824.38;4724754;30;20101;-86
2022/09/23 06:34:17;;;;;;;0.98;0.80;;;;;;;19.90;31.19;100841.72;4726029;30;20035;-86
2022/09/23 06:36:43;;;;;;;0.68;0.68;;;;;;;19.77;31.37;100831.16;4736358;30;20042;-86
2022/09/23 06:39:09;;;;;;;1.45;0.80;;;;;;;19.81;31.45;100835.84;4751248;30;20027;-85
2022/09/23 06:41:34;;;;;;;0.70;0.60;;;;;;;19.84;31.47;100845.41;4757982;30;20145;-86
2022/09/23 06:44:00;;;;;;;1.05;0.80;;;;;;;19.75;31.58;100831.38;4727641;30;20042;-86
2022/09/23 06:46:26;;;;;;;1.60;0.90;;;;;;;19.81;31.59;100835.00;4761135;30;20036;-85
2022/09/23 06:48:52;;;;;;;0.88;0.88;;;;;;;19.81;31.58;100843.16;4745285;30;20073;-86
2022/09/23 06:51:18;;;;;;;0.90;0.80;;;;;;;19.78;31.56;100830.06;4724070;30;20032;-85
2022/09/23 06:53:47;;;;;;;1.63;0.70;;;;;;;19.85;31.43;100844.31;4744588;30;20475;-85
2022/09/23 06:56:13;;;;;;;1.73;0.90;;;;;;;19.77;31.30;100839.28;4740358;30;20032;-85
2022/09/23 06:58:39;;;;;;;0.68;0.68;;;;;;;19.77;31.68;100836.56;4729798;30;20394;-85
2022/09/23 07:01:06;;;;;;;0.80;0.80;;;;;;;19.78;31.65;100827.34;4729859;30;20132;-85
2022/09/23 07:03:32;;;;;;;0.82;0.73;;;;;;;19.74;31.77;100840.56;4736493;30;20470;-85
2022/09/23 07:05:58;;;;;;;0.60;0.60;;;;;;;19.73;31.81;100838.91;4759367;30;20059;-85
2022/09/23 07:08:26;;;;;;;3.17;0.80;;;;;;;19.62;31.73;100821.56;4742121;30;20510;-86
2022/09/23 07:10:58;;;;;;;0.70;0.70;;;;;;;19.79;31.85;100853.41;4724641;30;20067;-85
2022/09/23 07:13:24;;;;;;;2.10;0.70;;;;;;;19.56;31.82;100822.53;4748396;30;20100;-85
2022/09/23 07:15:54;;;;;;;1.10;0.80;;;;;;;19.74;31.84;100845.13;4734333;30;20085;-85
2022/09/23 07:18:22;;;;;;;0.88;0.68;;;;;;;19.84;31.65;100848.09;4746811;30;20491;-85
2022/09/23 07:20:48;;;;;;;1.33;0.90;;;;;;;19.84;31.49;100856.25;4736660;30;20066;-86
2022/09/23 07:23:13;;;;;;;1.45;1.00;;;;;;;19.81;31.78;100854.00;4723819;30;20398;-85
2022/09/23 07:25:39;;;;;;;1.70;0.80;;;;;;;19.86;31.82;100860.34;4731016;30;20031;-85
2022/09/23 07:28:05;;;;;;;1.08;0.70;;;;;;;19.82;31.76;100856.47;4744376;30;20034;-85
2022/09/23 07:30:36;;;;;;;1.23;1.02;;;;;;;19.77;31.75;100848.22;4745286;30;20038;-85
2022/09/23 07:33:01;;;;;;;9.18;0.82;;;;;;;19.90;31.90;100860.69;4744732;30;20028;-85
2022/09/23 07:35:27;;;;;;;0.73;0.70;;;;;;;19.80;31.67;100839.63;4758997;30;20461;-85
2022/09/23 07:37:53;;;;;;;2.45;0.70;;;;;;;19.78;31.80;100841.75;4723774;30;20114;-85
2022/09/23 07:40:18;;;;;;;0.80;0.80;;;;;;;19.88;31.77;100857.41;4720375;30;20493;-85
2022/09/23 07:42:44;;;;;;;2.05;0.85;;;;;;;19.86;31.61;100848.69;4744068;30;20051;-85
2022/09/23 07:45:12;;;;;;;0.70;0.70;;;;;;;19.88;31.88;100852.81;4740504;30;20067;-85
2022/09/23 07:47:38;;;;;;;0.80;0.80;;;;;;;19.77;31.86;100836.56;4726045;30;20127;-86
2022/09/23 07:50:06;;;;;;;1.35;0.82;;;;;;;19.77;31.83;100852.84;4743395;30;20032;-85
2022/09/23 07:52:35;;;;;;;0.98;0.80;;;;;;;19.80;31.88;100855.06;4752008;30;20381;-85
2022/09/23 07:55:01;;;;;;;1.27;0.90;;;;;;;19.83;31.84;100854.59;4728549;30;20394;-85
2022/09/23 07:57:27;;;;;;;1.25;0.80;;;;;;;19.81;31.78;100843.97;4741369;30;20035;-85
2022/09/23 07:59:55;;;;;;;1.20;0.63;;;;;;;19.82;31.87;100851.06;4723365;30;20031;-85
2022/09/23 08:02:20;;;;;;;1.83;0.80;;;;;;;19.77;31.79;100842.00;4747145;30;20040;-86
2022/09/23 08:04:47;;;;;;;0.93;0.90;;;;;;;19.81;31.64;100837.72;4729837;30;20549;-85
2022/09/23 08:07:13;;;;;;;1.00;0.90;;;;;;;19.85;31.83;100849.75;4747393;30;20096;-85
2022/09/23 08:09:40;;;;;;;0.80;0.80;;;;;;;19.82;31.88;100852.94;4750158;30;20406;-85
2022/09/23 08:12:07;;;;;;;0.80;0.80;;;;;;;19.87;32.11;100861.19;4735891;30;20028;-85
2022/09/23 08:14:32;;;;;;;1.13;0.80;;;;;;;19.87;31.62;100861.19;4720560;30;20028;-85
2022/09/23 08:16:58;;;;;;;1.73;0.98;;;;;;;19.83;31.83;100850.00;4741674;30;20545;-85
2022/09/23 08:19:24;;;;;;;0.70;0.70;;;;;;;19.86;31.64;100854.13;4743358;30;20034;-85
2022/09/23 08:21:51;;;;;;;0.60;0.60;;;;;;;19.84;31.89;100850.81;4725282;30;20096;-85
2022/09/23 08:24:20;;;;;;;0.85;0.80;;;;;;;19.89;31.77;100853.66;4745378;30;20398;-85
2022/09/23 08:26:48;;;;;;;1.60;0.70;;;;;;;19.86;31.85;100844.06;4745192;30;20067;-85
2022/09/23 08:29:15;;;;;;;1.10;1.00;;;;;;;19.62;31.64;100805.28;4741739;30;20052;-85
2022/09/23 08:31:41;;;;;;;1.63;0.70;;;;;;;19.85;31.98;100841.59;4733185;30;20342;-85
2022/09/23 08:34:06;;;;;;;0.52;0.52;;;;;;;19.88;31.82;100841.13;4747018;30;20605;-85
2022/09/23 08:36:32;;;;;;;0.52;0.52;;;;;;;19.86;31.89;100843.25;4741832;30;20042;-86
2022/09/23 08:38:58;;;;;;;1.00;0.80;;;;;;;19.88;31.82;100830.28;4728622;30;20401;-85
2022/09/23 08:41:39;;;;;;;2.00;0.75;;;;;;;19.94;31.73;100842.91;4727677;30;20050;-85
2022/09/23 08:44:41;;;;;;;1.27;0.75;;;;;;;19.95;31.81;100838.28;4751238;30;20028;-85
2022/09/23 08:47:20;;;;;;;0.73;0.70;;;;;;;19.90;31.97;100822.72;4723490;30;20040;-85
2022/09/23 08:49:57;;;;;;;2.25;0.80;;;;;;;19.96;31.80;100827.22;4722684;30;20428;-85
2022/09/23 08:52:41;;;;;;;0.73;0.73;;;;;;;19.98;31.76;100830.50;4747500;30;20414;-86
2022/09/23 08:55:10;;;;;;;1.65;0.90;;;;;;;19.94;32.03;100820.34;4757745;30;20089;-86
2022/09/23 08:58:18;;;;;;;0.60;0.60;;;;;;;19.96;31.96;100821.78;4719955;30;20044;-86
2022/09/23 09:00:45;;;;;;;0.85;0.73;;;;;;;19.97;31.78;100822.59;4761178;30;20057;-85
2022/09/23 09:03:42;;;;;;;2.35;0.85;;;;;;;20.06;31.82;100823.91;4728695;30;20510;-85
2022/09/23 09:06:12;;;;;;;0.85;0.80;;;;;;;20.02;31.76;100817.28;4741697;30;20063;-85
2022/09/23 09:08:37;;;;;;;0.77;0.60;;;;;;;19.93;31.88;100800.56;4721401;30;20325;-85
2022/09/23 09:11:03;;;;;;;1.77;0.60;;;;;;;20.08;31.93;100822.56;4741918;30;20063;-85
2022/09/23 09:13:34;;;;;;;0.90;0.60;;;;;;;20.06;31.83;100816.56;4734752;30;20028;-85
2022/09/23 09:16:10;;;;;;;0.63;0.60;;;;;;;20.11;31.94;100818.56;4721360;30;20027;-85
2022/09/23 09:18:39;;;;;;;2.35;0.60;;;;;;;20.08;32.08;100819.03;4764925;30;20035;-85
2022/09/23 09:21:11;;;;;;;0.70;0.70;;;;;;;20.11;31.89;100815.00;4726164;30;20035;-85
2022/09/23 09:23:55;;;;;;;0.50;0.50;;;;;;;20.06;31.97;100813.84;4738545;30;20040;-85
2022/09/23 09:26:23;;;;;;;0.60;0.60;;;;;;;20.07;32.03;100815.50;4735158;30;20039;-85
2022/09/23 09:29:16;;;;;;;0.68;0.68;;;;;;;20.15;31.97;100818.91;4744110;30;20116;-85
2022/09/23 09:31:46;;;;;;;0.50;0.50;;;;;;;20.13;31.99;100815.59;4754177;30;20078;-85
2022/09/23 09:34:41;;;;;;;0.52;0.52;;;;;;;20.20;31.99;100819.00;4741823;30;20039;-85
2022/09/23 09:37:38;;;;;;;0.85;0.77;;;;;;;20.20;31.93;100816.28;4758704;30;20079;-85
2022/09/23 09:40:04;;;;;;;0.60;0.60;;;;;;;20.15;31.94;100808.06;4748161;30;20043;-85
2022/09/23 09:42:37;;;;;;;0.57;0.57;;;;;;;20.20;32.14;100808.16;4761477;30;20035;-85
2022/09/23 09:45:05;;;;;;;0.55;0.55;;;;;;;20.25;32.07;100809.06;4728516;30;20067;-85
2022/09/23 09:47:58;;;;;;;0.82;0.70;;;;;;;20.18;32.05;100802.97;4728215;30;20494;-85
2022/09/23 09:50:51;;;;;;;3.25;0.80;;;;;;;20.29;32.00;100812.13;4737548;30;20287;-85
2022/09/23 09:53:22;;;;;;;0.77;0.70;;;;;;;20.29;32.10;100812.13;4767562;30;20084;-85
2022/09/23 09:56:15;;;;;;;0.63;0.60;;;;;;;20.28;32.06;100807.75;4768168;30;20088;-85
2022/09/23 09:58:55;;;;;;;0.70;0.70;;;;;;;20.28;31.88;100799.59;4741663;30;20078;-85
2022/09/23 10:01:31;;;;;;;1.27;0.82;;;;;;;20.27;32.00;100797.97;4764832;30;20077;-85
2022/09/23 10:04:00;;;;;;;0.65;0.50;;;;;;;20.14;32.05;100771.94;4737301;30;20039;-85
2022/09/23 10:06:28;;;;;;;2.25;0.80;;;;;;;20.25;32.08;100795.50;4722745;30;20069;-85
2022/09/23 10:09:00;;;;;;;0.80;0.80;;;;;;;20.40;32.12;100805.00;4737286;30;20390;-85
2022/09/23 10:11:26;;;;;;;1.27;0.80;;;;;;;20.32;31.93;100798.06;4757679;30;20039;-86
2022/09/23 10:14:17;;;;;;;0.70;0.70;;;;;;;20.46;31.92;100812.19;4740436;30;20036;-85
2022/09/23 10:16:42;;;;;;;0.90;0.80;;;;;;;20.43;31.95;100799.91;4744490;30;20071;-86
2022/09/23 10:19:22;;;;;;;1.30;0.60;;;;;;;20.42;32.07;100798.28;4734068;30;20039;-86
2022/09/23 10:21:51;;;;;;;1.25;0.90;;;;;;;20.48;31.99;100806.50;4752713;30;20039;-85
2022/09/23 10:24:21;;;;;;;0.75;0.57;;;;;;;20.48;31.97;100796.47;4722260;30;20040;-86
2022/09/23 10:27:03;;;;;;;2.35;0.60;;;;;;;20.45;31.98;100795.06;4735264;30;20935;-85
2022/09/23 10:29:36;;;;;;;1.08;0.90;;;;;;;20.41;31.82;100779.50;4741354;30;20035;-86
2022/09/23 10:32:28;;;;;;;0.73;0.73;;;;;;;20.55;31.95;100799.84;4740205;30;20262;-85
2022/09/23 10:35:09;;;;;;;0.68;0.60;;;;;;;20.56;32.02;100797.97;4745316;30;20077;-86
2022/09/23 10:37:39;;;;;;;1.02;0.65;;;;;;;20.47;31.88;100780.41;4767251;30;20063;-86
2022/09/23 10:46:37;;;;;;;0.70;0.60;;;;;;;20.59;31.83;100792.03;4766413;30;20458;-86
2022/09/23 10:49:35;;;;;;;4.00;0.80;;;;;;;20.63;32.04;100793.25;4744924;30;20237;-86
2022/09/23 10:52:35;;;;;;;0.60;0.60;;;;;;;20.64;31.93;100778.56;4740471;30;20179;-86
2022/09/23 10:55:10;;;;;;;1.58;0.70;;;;;;;20.62;32.06;100778.00;4761079;30;20516;-86
2022/09/23 10:57:42;;;;;;;0.82;0.70;;;;;;;20.70;31.90;100787.66;4745344;30;20035;-86
2022/09/23 11:00:08;;;;;;;1.20;0.70;;;;;;;20.69;32.04;100783.28;4761118;30;20028;-86
2022/09/23 11:02:57;;;;;;;0.60;0.60;;;;;;;20.69;31.99;100781.38;4767041;30;20108;-86
2022/09/23 11:05:31;;;;;;;0.90;0.82;;;;;;;20.71;32.02;100781.13;4727604;30;20039;-86
2022/09/23 11:07:57;;;;;;;0.50;0.50;;;;;;;20.74;32.01;100775.22;4761779;30;20410;-86
2022/09/23 11:10:38;;;;;;;2.10;0.70;;;;;;;20.61;32.00;100760.03;4756140;30;20534;-86
2022/09/23 11:13:07;;;;;;;0.50;0.50;;;;;;;20.75;32.08;100774.97;4743517;30;20040;-85
2022/09/23 11:15:43;;;;;;;0.60;0.60;;;;;;;20.76;31.96;100782.03;4742403;30;20131;-85
2022/09/23 11:18:33;;;;;;;0.73;0.60;;;;;;;20.77;32.09;100772.84;4758332;30;20036;-86
2022/09/23 11:21:01;;;;;;;4.43;0.60;;;;;;;20.77;31.99;100772.84;4761856;30;20052;-86
2022/09/23 11:23:39;;;;;;;1.23;0.82;;;;;;;20.81;31.94;100770.44;4759027;30;20047;-86
2022/09/23 11:26:27;;;;;;;0.55;0.55;;;;;;;20.82;32.06;100772.91;4753943;30;20058;-85
2022/09/23 11:29:27;;;;;;;0.70;0.70;;;;;;;20.82;31.85;100778.34;4765878;30;20032;-86
2022/09/23 11:32:00;;;;;;;0.70;0.57;;;;;;;20.83;32.05;100776.44;4742904;30;20088;-86
2022/09/23 11:35:18;;;;;;;0.60;0.60;;;;;;;20.83;32.11;100776.44;4750223;30;20028;-86
2022/09/23 11:37:52;;;;;;;0.60;0.60;;;;;;;20.78;32.05;100760.91;4750828;30;20513;-86
2022/09/23 11:40:22;;;;;;;0.80;0.80;;;;;;;20.85;32.03;100768.88;4739750;30;20040;-86
2022/09/23 11:43:00;;;;;;;0.50;0.50;;;;;;;20.81;32.07;100768.53;4759564;30;20498;-86
2022/09/23 11:45:31;;;;;;;0.70;0.70;;;;;;;20.78;32.12;100758.19;4743100;30;20044;-86
2022/09/23 11:48:15;;;;;;;0.80;0.63;;;;;;;20.89;31.97;100769.22;4744202;30;20032;-86
2022/09/23 11:50:46;;;;;;;0.75;0.60;;;;;;;20.90;32.21;100771.66;4743812;30;20127;-85